createdAt,value
2023-01-19T00:00:52.433Z,84.15
2023-01-19T00:03:18.970Z,84.11
2023-01-19T00:05:45.708Z,84.61
2023-01-19T00:08:15.871Z,84.33
2023-01-19T00:10:44.463Z,85.07
2023-01-19T00:13:13.328Z,84.11
2023-01-19T00:15:40.088Z,84.19
2023-01-19T00:18:08.033Z,84.99
2023-01-19T00:20:36.266Z,85.78
2023-01-19T00:23:04.750Z,84.58
2023-01-19T00:25:31.688Z,84.32
2023-01-19T00:28:01.257Z,87.20
2023-01-19T00:30:28.348Z,84.58
2023-01-19T00:32:54.910Z,85.04
2023-01-19T00:35:21.567Z,85.20
2023-01-19T00:37:48.281Z,84.88
2023-01-19T00:40:14.976Z,84.89
2023-01-19T00:42:44.405Z,85.14
2023-01-19T00:45:14.189Z,84.56
2023-01-19T00:47:41.742Z,84.70
2023-01-19T00:50:11.729Z,84.47
2023-01-19T00:52:39.637Z,84.44
2023-01-19T00:55:08.220Z,85.18
2023-01-19T00:57:34.864Z,85.35
2023-01-19T01:00:01.799Z,86.04
2023-01-19T01:02:28.531Z,85.01
2023-01-19T01:04:56.815Z,85.73
2023-01-19T01:07:24.399Z,86.36
2023-01-19T01:09:51.400Z,85.14
2023-01-19T01:12:17.985Z,85.46
2023-01-19T01:14:44.561Z,86.50
2023-01-19T01:17:14.404Z,85.78
2023-01-19T01:19:41.832Z,85.42
2023-01-19T01:22:09.789Z,85.25
2023-01-19T01:24:36.435Z,85.40
2023-01-19T01:27:03.038Z,85.82
2023-01-19T01:29:29.626Z,85.57
2023-01-19T01:31:56.101Z,85.26
2023-01-19T01:34:22.865Z,85.59
2023-01-19T01:36:49.427Z,85.30
2023-01-19T01:39:15.920Z,85.46
2023-01-19T01:41:42.443Z,85.40
2023-01-19T01:44:50.192Z,85.68
2023-01-19T01:47:23.671Z,86.11
2023-01-19T01:49:57.975Z,85.68
2023-01-19T01:52:27.994Z,86.90
2023-01-19T01:54:55.125Z,86.58
2023-01-19T01:57:23.148Z,86.19
2023-01-19T01:59:51.121Z,86.19
2023-01-19T02:02:40.043Z,86.08
2023-01-19T02:05:11.969Z,86.50
2023-01-19T02:08:20.069Z,87.53
2023-01-19T02:11:06.366Z,86.47
2023-01-19T02:13:39.915Z,86.42
2023-01-19T02:16:08.589Z,86.84
2023-01-19T02:18:36.123Z,87.97
2023-01-19T02:21:19.242Z,88.12
2023-01-19T02:23:47.281Z,87.71
2023-01-19T02:26:17.564Z,86.92
2023-01-19T02:28:50.323Z,86.95
2023-01-19T02:31:17.821Z,87.31
2023-01-19T02:33:44.473Z,86.71
2023-01-19T02:36:14.380Z,86.84
2023-01-19T02:38:44.837Z,87.16
2023-01-19T02:41:15.208Z,87.19
2023-01-19T02:43:43.338Z,87.12
2023-01-19T02:46:10.067Z,88.47
2023-01-19T02:48:36.892Z,87.91
2023-01-19T02:51:17.075Z,88.29
2023-01-19T02:54:05.520Z,88.55
2023-01-19T02:57:02.596Z,88.72
2023-01-19T02:59:43.869Z,88.72
2023-01-19T03:02:36.917Z,89.19
2023-01-19T03:05:37.968Z,89.45
2023-01-19T03:08:58.821Z,89.42
2023-01-19T03:11:30.754Z,89.37
2023-01-19T03:14:02.047Z,89.75
2023-01-19T03:16:57.328Z,89.51
2023-01-19T03:19:28.558Z,89.42
2023-01-19T03:21:59.295Z,89.19
2023-01-19T03:24:29.698Z,89.63
2023-01-19T03:27:06.594Z,89.46
2023-01-19T03:29:36.053Z,89.47
2023-01-19T03:32:09.308Z,89.48
2023-01-19T03:34:38.188Z,89.85
2023-01-19T03:37:07.954Z,89.21
2023-01-19T03:39:34.722Z,89.42
2023-01-19T03:42:08.449Z,89.35
2023-01-19T03:44:37.925Z,89.43
2023-01-19T03:47:06.483Z,89.12
2023-01-19T03:49:35.136Z,89.19
2023-01-19T03:52:01.785Z,89.23
2023-01-19T03:54:28.452Z,88.99
2023-01-19T03:56:54.980Z,89.32
2023-01-19T03:59:21.979Z,89.41
2023-01-19T04:01:49.204Z,88.72
2023-01-19T04:04:15.944Z,89.15
2023-01-19T04:06:43.347Z,89.17
2023-01-19T04:09:10.235Z,89.27
2023-01-19T04:11:36.883Z,89.14
2023-01-19T04:14:04.118Z,89.31
2023-01-19T04:16:30.655Z,89.35
2023-01-19T04:18:57.316Z,89.33
2023-01-19T04:21:24.047Z,89.14
2023-01-19T04:23:50.728Z,89.07
2023-01-19T04:26:17.339Z,88.68
2023-01-19T04:28:43.853Z,88.99
2023-01-19T04:31:10.640Z,89.07
2023-01-19T04:33:37.138Z,89.08
2023-01-19T04:36:04.239Z,88.96
2023-01-19T04:38:31.024Z,88.83
2023-01-19T04:40:57.668Z,89.02
2023-01-19T04:43:24.558Z,89.33
2023-01-19T04:45:51.439Z,89.04
2023-01-19T04:48:19.176Z,88.87
2023-01-19T04:50:46.580Z,89.06
2023-01-19T04:53:13.936Z,89.35
2023-01-19T04:55:41.075Z,89.15
2023-01-19T04:58:08.076Z,89.21
2023-01-19T05:00:34.808Z,88.75
2023-01-19T05:03:01.915Z,88.89
2023-01-19T05:05:28.718Z,89.25
2023-01-19T05:07:55.742Z,89.05
2023-01-19T05:10:22.561Z,88.74
2023-01-19T05:12:49.548Z,88.88
2023-01-19T05:15:16.259Z,88.88
2023-01-19T05:17:43.013Z,89.31
2023-01-19T05:20:14.331Z,88.85
2023-01-19T05:22:42.379Z,89.43
2023-01-19T05:25:09.715Z,89.17
2023-01-19T05:27:37.384Z,89.35
2023-01-19T05:30:05.632Z,89.34
2023-01-19T05:32:32.316Z,89.26
2023-01-19T05:34:59.121Z,89.45
2023-01-19T05:37:26.969Z,89.06
2023-01-19T05:39:53.894Z,89.08
2023-01-19T05:42:21.059Z,88.92
2023-01-19T05:44:47.659Z,88.84
2023-01-19T05:47:14.389Z,89.02
2023-01-19T05:49:41.205Z,89.02
2023-01-19T05:52:07.812Z,89.14
2023-01-19T05:54:34.422Z,89.38
2023-01-19T05:57:01.592Z,89.30
2023-01-19T05:59:28.973Z,89.32
2023-01-19T06:01:55.790Z,89.18
2023-01-19T06:04:22.394Z,89.33
2023-01-19T06:06:50.135Z,89.39
2023-01-19T06:09:19.919Z,89.23
2023-01-19T06:11:47.343Z,89.35
2023-01-19T06:14:14.177Z,89.09
2023-01-19T06:16:40.819Z,89.29
2023-01-19T06:19:07.840Z,89.53
2023-01-19T06:21:34.605Z,88.90
2023-01-19T06:24:01.393Z,89.61
2023-01-19T06:26:28.227Z,89.54
2023-01-19T06:28:55.572Z,89.84
2023-01-19T06:31:22.611Z,89.58
2023-01-19T06:33:50.010Z,89.70
2023-01-19T06:36:16.590Z,89.28
2023-01-19T06:38:43.319Z,89.60
2023-01-19T06:41:09.963Z,89.75
2023-01-19T06:43:36.491Z,89.67
2023-01-19T06:46:04.025Z,89.83
2023-01-19T06:48:30.881Z,89.92
2023-01-19T06:50:59.501Z,90.00
2023-01-19T06:53:28.200Z,90.05
2023-01-19T06:55:59.859Z,90.24
2023-01-19T06:58:27.699Z,90.35
2023-01-19T07:00:54.561Z,90.36
2023-01-19T07:03:23.146Z,90.14
2023-01-19T07:05:53.587Z,89.86
2023-01-19T07:08:20.228Z,89.71
2023-01-19T07:11:26.759Z,89.86
2023-01-19T07:13:34.604Z,89.59
2023-01-19T07:16:08.996Z,90.18
2023-01-19T07:18:37.335Z,89.72
2023-01-19T07:21:05.183Z,90.02
2023-01-19T07:23:31.945Z,89.46
2023-01-19T07:26:00.935Z,89.73
2023-01-19T07:28:29.295Z,89.34
2023-01-19T07:30:56.052Z,88.81
2023-01-19T07:33:23.225Z,89.08
2023-01-19T07:35:50.769Z,89.18
2023-01-19T07:38:19.176Z,89.44
2023-01-19T07:40:48.829Z,89.61
2023-01-19T07:43:16.428Z,89.57
2023-01-19T07:45:43.404Z,89.85
2023-01-19T07:48:10.124Z,90.30
2023-01-19T07:50:36.799Z,90.41
2023-01-19T07:53:07.217Z,90.91
2023-01-19T07:55:34.169Z,91.12
2023-01-19T07:58:00.958Z,91.58
2023-01-19T08:00:27.794Z,91.63
2023-01-19T08:03:00.444Z,91.48
2023-01-19T08:05:29.410Z,91.71
2023-01-19T08:07:57.716Z,91.92
2023-01-19T08:10:28.741Z,90.94
2023-01-19T08:12:57.182Z,91.33
2023-01-19T08:15:24.795Z,90.01
2023-01-19T08:18:02.952Z,90.27
2023-01-19T08:20:29.976Z,90.31
2023-01-19T08:23:04.941Z,90.62
2023-01-19T08:25:44.323Z,89.62
2023-01-19T08:28:13.290Z,89.54
2023-01-19T08:30:40.829Z,89.23
2023-01-19T08:33:08.288Z,89.26
2023-01-19T08:35:42.991Z,88.79
2023-01-19T08:38:10.593Z,88.87
2023-01-19T08:40:40.049Z,89.27
2023-01-19T08:43:08.838Z,88.61
2023-01-19T08:45:51.611Z,88.00
2023-01-19T08:48:22.197Z,88.54
2023-01-19T08:50:50.213Z,89.01
2023-01-19T08:53:17.558Z,89.14
2023-01-19T08:55:44.142Z,89.26
2023-01-19T08:58:12.570Z,90.07
2023-01-19T09:00:40.360Z,90.65
2023-01-19T09:03:09.094Z,91.58
2023-01-19T09:05:39.651Z,91.53
2023-01-19T09:08:11.408Z,91.96
2023-01-19T09:10:39.381Z,91.81
2023-01-19T09:13:08.547Z,91.97
2023-01-19T09:15:35.988Z,91.65
2023-01-19T09:18:03.457Z,92.55
2023-01-19T09:20:34.838Z,92.11
2023-01-19T09:23:01.558Z,92.25
2023-01-19T09:25:28.199Z,92.23
2023-01-19T09:27:56.119Z,91.84
2023-01-19T09:30:23.172Z,91.68
2023-01-19T09:32:49.768Z,91.71
2023-01-19T09:35:16.630Z,91.49
2023-01-19T09:37:47.293Z,91.01
2023-01-19T09:40:15.928Z,89.78
2023-01-19T09:42:45.144Z,90.15
2023-01-19T09:45:37.485Z,89.99
2023-01-19T09:48:07.081Z,89.63
2023-01-19T09:50:40.077Z,90.57
2023-01-19T09:53:16.615Z,89.90
2023-01-19T09:55:43.461Z,88.87
2023-01-19T09:58:16.446Z,90.20
2023-01-19T10:00:47.802Z,90.17
2023-01-19T10:03:15.559Z,89.69
2023-01-19T10:05:55.508Z,90.25
2023-01-19T10:08:40.701Z,90.90
2023-01-19T10:11:34.520Z,87.36
2023-01-19T10:14:21.985Z,89.35
2023-01-19T10:17:20.468Z,90.08
2023-01-19T10:19:53.975Z,89.81
2023-01-19T10:22:23.844Z,89.94
2023-01-19T10:25:00.788Z,90.36
2023-01-19T10:27:32.222Z,90.48
2023-01-19T10:30:00.834Z,90.30
2023-01-19T10:32:33.152Z,89.30
2023-01-19T10:35:01.136Z,88.61
2023-01-19T10:37:30.644Z,86.64
2023-01-19T10:40:09.627Z,86.17
2023-01-19T10:42:38.716Z,88.67
2023-01-19T10:45:19.860Z,88.40
2023-01-19T10:47:48.501Z,86.62
2023-01-19T10:50:32.580Z,88.00
2023-01-19T10:53:05.981Z,85.64
2023-01-19T10:55:38.247Z,87.41
2023-01-19T10:58:06.901Z,86.82
2023-01-19T11:00:35.015Z,87.18
2023-01-19T11:03:02.088Z,86.61
2023-01-19T11:05:33.219Z,86.75
2023-01-19T11:08:00.091Z,85.20
2023-01-19T11:10:29.551Z,84.39
2023-01-19T11:13:08.749Z,84.82
2023-01-19T11:15:35.798Z,85.81
2023-01-19T11:18:05.640Z,85.73
2023-01-19T11:20:51.248Z,84.86
2023-01-19T11:23:34.197Z,83.02
2023-01-19T11:26:05.340Z,84.20
2023-01-19T11:28:36.009Z,82.41
2023-01-19T11:31:15.490Z,81.52
2023-01-19T11:33:49.839Z,79.47
2023-01-19T11:36:19.100Z,81.55
2023-01-19T11:38:49.099Z,81.19
2023-01-19T11:41:29.157Z,76.86
2023-01-19T11:43:58.639Z,80.42
2023-01-19T11:46:31.998Z,73.56
2023-01-19T11:49:12.823Z,78.12
2023-01-19T11:51:51.098Z,80.42
2023-01-19T11:54:30.411Z,81.56
2023-01-19T11:56:59.603Z,81.56
2023-01-19T11:59:26.617Z,80.93
2023-01-19T12:01:57.952Z,78.98
2023-01-19T12:04:34.670Z,80.43
2023-01-19T12:07:09.063Z,79.46
2023-01-19T12:09:42.897Z,79.45
2023-01-19T12:12:12.520Z,79.32
2023-01-19T12:14:54.090Z,78.29
2023-01-19T12:17:28.794Z,74.68
2023-01-19T12:20:13.861Z,75.94
2023-01-19T12:22:52.858Z,77.35
2023-01-19T12:25:32.264Z,76.76
2023-01-19T12:27:59.914Z,75.30
2023-01-19T12:30:29.578Z,76.22
2023-01-19T12:33:22.683Z,75.64
2023-01-19T12:36:16.910Z,75.60
2023-01-19T12:39:04.491Z,73.74
2023-01-19T12:41:36.768Z,76.20
2023-01-19T12:44:12.477Z,76.04
2023-01-19T12:46:55.111Z,75.96
2023-01-19T12:49:42.607Z,76.45
2023-01-19T12:52:24.205Z,75.48
2023-01-19T12:55:00.731Z,77.04
2023-01-19T12:57:30.325Z,76.85
2023-01-19T13:00:00.092Z,75.73
2023-01-19T13:02:27.902Z,75.54
2023-01-19T13:05:25.040Z,74.82
2023-01-19T13:08:09.513Z,75.43
2023-01-19T13:11:00.795Z,74.20
2023-01-19T13:13:30.270Z,74.25
2023-01-19T13:16:20.927Z,74.19
2023-01-19T13:18:52.163Z,74.37
2023-01-19T13:21:36.549Z,72.89
2023-01-19T13:24:10.715Z,73.54
2023-01-19T13:26:39.975Z,74.07
2023-01-19T13:29:10.553Z,73.49
2023-01-19T13:31:42.774Z,71.70
2023-01-19T13:34:14.552Z,71.30
2023-01-19T13:36:45.627Z,68.70
2023-01-19T13:42:48.607Z,70.56
2023-01-19T13:45:27.478Z,68.96
2023-01-19T13:47:56.761Z,69.39
2023-01-19T13:50:25.102Z,70.32
2023-01-19T13:52:54.039Z,70.04
2023-01-19T13:55:21.458Z,70.09
2023-01-19T13:57:50.275Z,69.94
2023-01-19T14:00:19.727Z,68.92
2023-01-19T14:03:01.184Z,64.94
2023-01-19T14:05:34.377Z,68.91
2023-01-19T14:08:13.151Z,68.40
2023-01-19T14:10:50.378Z,68.13
2023-01-19T14:13:22.760Z,69.07
2023-01-19T14:15:54.070Z,69.29
2023-01-19T14:18:27.069Z,67.89
2023-01-19T14:20:57.885Z,69.75
2023-01-19T14:23:44.832Z,69.60
2023-01-19T14:26:51.290Z,70.44
2023-01-19T14:29:34.874Z,69.28
2023-01-19T14:32:01.381Z,70.45
2023-01-19T14:34:30.883Z,68.95
2023-01-19T14:37:00.235Z,68.27
2023-01-19T14:39:30.896Z,70.16
2023-01-19T14:42:00.995Z,70.20
2023-01-19T14:44:38.948Z,69.61
2023-01-19T14:47:07.271Z,68.58
2023-01-19T14:49:41.871Z,70.78
2023-01-19T14:52:24.837Z,71.29
2023-01-19T14:54:53.564Z,70.88
2023-01-19T14:57:20.134Z,70.24
2023-01-19T14:59:49.657Z,68.66
2023-01-19T15:02:19.184Z,70.43
2023-01-19T15:04:48.077Z,70.48
2023-01-19T15:07:19.539Z,70.61
2023-01-19T15:09:47.237Z,69.85
2023-01-19T15:12:17.465Z,69.12
2023-01-19T15:14:45.368Z,70.24
2023-01-19T15:17:25.239Z,70.13
2023-01-19T15:19:55.604Z,70.01
2023-01-19T15:22:25.223Z,69.35
2023-01-19T15:24:51.835Z,69.56
2023-01-19T15:27:19.663Z,69.94
2023-01-19T15:29:46.228Z,71.24
2023-01-19T15:32:14.253Z,70.50
2023-01-19T15:34:41.629Z,70.90
2023-01-19T15:37:08.904Z,69.51
2023-01-19T15:39:35.721Z,70.10
2023-01-19T15:42:02.395Z,68.88
2023-01-19T15:44:29.806Z,68.03
2023-01-19T15:46:57.486Z,68.61
2023-01-19T15:49:24.011Z,67.17
2023-01-19T15:51:50.613Z,67.46
2023-01-19T15:54:18.476Z,67.85
2023-01-19T15:56:45.080Z,67.05
2023-01-19T15:59:11.765Z,67.29
2023-01-19T16:01:40.117Z,67.82
2023-01-19T16:04:09.749Z,67.77
2023-01-19T16:06:36.443Z,67.11
2023-01-19T16:09:03.952Z,68.86
2023-01-19T16:11:35.250Z,68.48
2023-01-19T16:14:01.985Z,68.83
2023-01-19T16:16:28.803Z,68.30
2023-01-19T16:18:56.291Z,67.59
2023-01-19T16:21:23.862Z,67.93
2023-01-19T16:23:51.054Z,68.14
2023-01-19T16:26:34.265Z,66.28
2023-01-19T16:29:08.658Z,67.63
2023-01-19T16:31:38.409Z,67.83
2023-01-19T16:34:05.175Z,67.71
2023-01-19T16:36:33.801Z,68.75
2023-01-19T16:39:02.401Z,68.93
2023-01-19T16:41:29.396Z,69.28
2023-01-19T16:43:58.031Z,69.05
2023-01-19T16:46:30.422Z,69.12
2023-01-19T16:49:01.687Z,69.47
2023-01-19T16:51:28.772Z,70.06
2023-01-19T16:53:55.664Z,69.39
2023-01-19T16:56:22.510Z,68.91
2023-01-19T16:58:53.317Z,69.03
2023-01-19T17:01:20.865Z,69.70
2023-01-19T17:03:47.965Z,69.44
2023-01-19T17:06:18.460Z,69.83
2023-01-19T17:08:45.078Z,69.72
2023-01-19T17:11:19.482Z,69.66
2023-01-19T17:13:47.479Z,69.79
2023-01-19T17:16:17.366Z,69.96
2023-01-19T17:18:44.050Z,70.51
2023-01-19T17:21:11.017Z,70.76
2023-01-19T17:23:42.745Z,69.91
2023-01-19T17:26:09.852Z,70.17
2023-01-19T17:28:36.652Z,71.11
2023-01-19T17:31:11.820Z,70.68
2023-01-19T17:33:39.704Z,71.69
2023-01-19T17:36:09.501Z,70.66
2023-01-19T17:38:37.051Z,71.98
2023-01-19T17:41:14.197Z,72.00
2023-01-19T17:43:41.328Z,72.04
2023-01-19T17:46:08.242Z,72.28
2023-01-19T17:48:34.928Z,72.87
2023-01-19T17:51:03.588Z,72.89
2023-01-19T17:53:30.224Z,72.43
2023-01-19T17:56:04.743Z,72.27
2023-01-19T17:58:31.653Z,72.71
2023-01-19T18:00:58.946Z,74.72
2023-01-19T18:03:25.599Z,75.39
2023-01-19T18:05:55.865Z,74.53
2023-01-19T18:08:22.484Z,74.11
2023-01-19T18:10:56.671Z,73.19
2023-01-19T18:13:24.300Z,74.93
2023-01-19T18:15:51.057Z,76.29
2023-01-19T18:18:18.247Z,76.30
2023-01-19T18:20:45.026Z,76.37
2023-01-19T18:23:12.281Z,75.37
2023-01-19T18:25:39.797Z,76.62
2023-01-19T18:28:07.041Z,74.70
2023-01-19T18:30:37.504Z,76.71
2023-01-19T18:33:04.551Z,77.07
2023-01-19T18:35:31.211Z,76.53
2023-01-19T18:37:58.592Z,77.17
2023-01-19T18:40:25.641Z,76.67
2023-01-19T18:42:52.357Z,76.82
2023-01-19T18:45:18.885Z,77.25
2023-01-19T18:47:45.409Z,76.75
2023-01-19T18:50:14.638Z,77.42
2023-01-19T18:52:41.309Z,77.41
2023-01-19T18:55:08.187Z,77.32
2023-01-19T18:57:35.792Z,78.15
2023-01-19T19:00:04.145Z,77.89
2023-01-19T19:02:30.817Z,78.25
2023-01-19T19:04:57.527Z,77.95
2023-01-19T19:07:24.736Z,78.36
2023-01-19T19:09:51.346Z,78.36
2023-01-19T19:12:17.919Z,78.81
2023-01-19T19:14:44.561Z,78.64
2023-01-19T19:17:11.271Z,78.71
2023-01-19T19:19:37.840Z,79.21
2023-01-19T19:22:04.382Z,77.91
2023-01-19T19:24:32.117Z,78.58
2023-01-19T19:26:58.826Z,78.63
2023-01-19T19:29:26.350Z,78.61
2023-01-19T19:31:52.968Z,78.79
2023-01-19T19:34:19.559Z,78.50
2023-01-19T19:36:46.163Z,78.63
2023-01-19T19:39:12.813Z,78.91
2023-01-19T19:41:39.605Z,78.98
2023-01-19T19:44:06.120Z,78.68
2023-01-19T19:46:32.687Z,78.55
2023-01-19T19:48:59.266Z,78.61
2023-01-19T19:51:28.126Z,78.56
2023-01-19T19:53:56.702Z,78.64
2023-01-19T19:56:25.192Z,79.08
2023-01-19T19:58:54.112Z,79.08
2023-01-19T20:01:27.204Z,79.04
2023-01-19T20:03:54.910Z,79.58
2023-01-19T20:06:23.138Z,79.82
2023-01-19T20:08:50.967Z,80.11
2023-01-19T20:11:20.639Z,80.68
2023-01-19T20:13:47.996Z,80.90
2023-01-19T20:16:17.585Z,80.45
2023-01-19T20:18:48.616Z,81.28
2023-01-19T20:21:24.020Z,80.96
2023-01-19T20:23:52.931Z,81.02
2023-01-19T20:26:22.974Z,81.31
2023-01-19T20:28:49.717Z,81.94
2023-01-19T20:31:23.194Z,81.34
2023-01-19T20:33:51.465Z,81.48
2023-01-19T20:36:18.968Z,81.42
2023-01-19T20:38:45.717Z,81.75
2023-01-19T20:41:13.385Z,81.91
2023-01-19T20:43:40.429Z,82.26
2023-01-19T20:46:07.347Z,82.32
2023-01-19T20:48:34.088Z,82.46
2023-01-19T20:51:06.868Z,82.71
2023-01-19T20:53:34.579Z,82.98
2023-01-19T20:56:08.584Z,82.60
2023-01-19T20:58:35.161Z,82.59
2023-01-19T21:01:10.114Z,82.66
2023-01-19T21:03:36.677Z,82.82
2023-01-19T21:06:03.305Z,81.92
2023-01-19T21:08:29.772Z,81.78
2023-01-19T21:10:57.256Z,81.14
2023-01-19T21:13:23.990Z,81.07
2023-01-19T21:15:50.501Z,80.62
2023-01-19T21:18:17.111Z,80.40
2023-01-19T21:20:44.938Z,80.54
2023-01-19T21:23:11.500Z,81.35
2023-01-19T21:25:38.326Z,79.96
2023-01-19T21:28:04.997Z,80.89
2023-01-19T21:30:31.847Z,80.32
2023-01-19T21:32:58.436Z,80.26
2023-01-19T21:35:25.035Z,80.58
2023-01-19T21:37:51.551Z,80.07
2023-01-19T21:40:18.546Z,79.45
2023-01-19T21:42:45.137Z,80.09
2023-01-19T21:45:11.868Z,81.04
2023-01-19T21:47:39.030Z,80.32
2023-01-19T21:50:05.922Z,79.42
2023-01-19T21:52:33.780Z,79.79
2023-01-19T21:55:00.617Z,79.50
2023-01-19T21:57:27.188Z,79.18
2023-01-19T21:59:53.664Z,78.98
2023-01-19T22:02:37.198Z,81.18
2023-01-19T22:05:06.857Z,79.19
2023-01-19T22:07:33.483Z,79.33
2023-01-19T22:10:00.152Z,77.43
2023-01-19T22:12:26.922Z,76.93
2023-01-19T22:14:53.565Z,77.21
2023-01-19T22:17:20.287Z,76.81
2023-01-19T22:19:48.620Z,77.91
2023-01-19T22:22:15.544Z,78.38
2023-01-19T22:24:46.519Z,77.87
2023-01-19T22:27:13.368Z,78.98
2023-01-19T22:29:39.913Z,77.39
2023-01-19T22:32:06.663Z,78.54
2023-01-19T22:34:33.469Z,77.32
2023-01-19T22:37:00.131Z,77.06
2023-01-19T22:39:26.667Z,78.29
2023-01-19T22:41:53.233Z,77.64
2023-01-19T22:44:21.650Z,77.86
2023-01-19T22:46:51.119Z,77.92
2023-01-19T22:49:18.512Z,78.06
2023-01-19T22:51:45.476Z,78.63
2023-01-19T22:54:12.545Z,78.80
2023-01-19T22:56:40.567Z,78.30
2023-01-19T22:59:07.196Z,78.58
2023-01-19T23:01:37.382Z,79.52
2023-01-19T23:04:05.860Z,79.66
2023-01-19T23:06:36.929Z,78.63
2023-01-19T23:09:07.421Z,78.05
2023-01-19T23:11:40.559Z,80.69
2023-01-19T23:14:14.189Z,80.27
2023-01-19T23:16:40.898Z,78.29
2023-01-19T23:19:07.631Z,78.34
2023-01-19T23:21:34.487Z,77.39
2023-01-19T23:24:03.302Z,77.82
2023-01-19T23:26:31.135Z,80.16
2023-01-19T23:29:00.135Z,80.54
2023-01-19T23:31:28.195Z,79.39
2023-01-19T23:33:57.679Z,77.96
2023-01-19T23:36:26.765Z,78.69
2023-01-19T23:38:56.017Z,78.78
2023-01-19T23:41:23.725Z,78.36
2023-01-19T23:43:51.371Z,78.34
2023-01-19T23:46:20.104Z,78.34
2023-01-19T23:48:47.124Z,79.91
2023-01-19T23:51:19.399Z,82.80
2023-01-19T23:53:46.761Z,81.46
2023-01-19T23:56:14.583Z,83.14
2023-01-19T23:58:41.782Z,79.52
